createdAt,value
2023-05-19T00:00:06.286Z,9.203725
2023-05-19T00:01:06.274Z,9.203801
2023-05-19T00:02:06.314Z,9.203449
2023-05-19T00:03:06.341Z,9.203293
2023-05-19T00:04:06.273Z,9.203463
2023-05-19T00:05:06.245Z,9.203718
2023-05-19T00:06:06.279Z,9.203668
2023-05-19T00:07:06.243Z,9.203844
2023-05-19T00:08:06.220Z,9.203677
2023-05-19T00:09:06.238Z,9.203688
2023-05-19T00:10:06.213Z,9.203676
2023-05-19T00:11:06.251Z,9.203697
2023-05-19T00:12:06.213Z,9.203552
2023-05-19T00:13:06.198Z,9.203575
2023-05-19T00:14:06.222Z,9.203562
2023-05-19T00:15:06.182Z,9.203647
2023-05-19T00:16:06.275Z,9.203467
2023-05-19T00:17:06.237Z,9.203612
2023-05-19T00:18:06.199Z,9.203603
2023-05-19T00:19:06.249Z,9.203690
2023-05-19T00:20:06.139Z,9.203718
2023-05-19T00:21:06.149Z,9.203747
2023-05-19T00:22:06.160Z,9.203719
2023-05-19T00:23:06.156Z,9.203694
2023-05-19T00:24:06.144Z,9.203797
2023-05-19T00:25:06.110Z,9.203523
2023-05-19T00:26:06.143Z,9.203865
2023-05-19T00:27:06.143Z,9.203854
2023-05-19T00:28:06.095Z,9.203851
2023-05-19T00:29:06.094Z,9.203844
2023-05-19T00:30:06.099Z,9.203662
2023-05-19T00:31:06.087Z,9.203546
2023-05-19T00:32:06.236Z,9.203869
2023-05-19T00:33:06.120Z,9.203798
2023-05-19T00:34:06.064Z,9.203782
2023-05-19T00:35:06.082Z,9.203968
2023-05-19T00:36:06.087Z,9.203827
2023-05-19T00:37:06.047Z,9.203854
2023-05-19T00:38:06.036Z,9.203957
2023-05-19T00:39:06.030Z,9.203823
2023-05-19T00:40:06.051Z,9.203960
2023-05-19T00:41:06.061Z,9.203923
2023-05-19T00:42:06.029Z,9.203821
2023-05-19T00:43:06.074Z,9.203753
2023-05-19T00:44:05.994Z,9.203769
2023-05-19T00:45:06.031Z,9.203892
2023-05-19T00:46:06.146Z,9.203780
2023-05-19T00:47:06.111Z,9.203728
2023-05-19T00:48:06.046Z,9.204017
2023-05-19T00:49:05.976Z,9.203802
2023-05-19T00:50:05.997Z,9.203897
2023-05-19T00:51:05.976Z,9.204072
2023-05-19T00:52:05.955Z,9.204263
2023-05-19T00:53:05.994Z,9.204035
2023-05-19T00:54:05.958Z,9.203856
2023-05-19T00:55:06.025Z,9.204145
2023-05-19T00:56:05.959Z,9.203845
2023-05-19T00:57:05.921Z,9.204141
2023-05-19T00:58:05.953Z,9.203592
2023-05-19T00:59:05.919Z,9.203815
2023-05-19T01:00:05.933Z,9.203618
2023-05-19T01:01:05.948Z,9.203895
2023-05-19T01:02:05.898Z,9.203888
2023-05-19T01:03:05.956Z,9.204034
2023-05-19T01:04:05.970Z,9.204121
2023-05-19T01:05:05.907Z,9.203912
2023-05-19T01:06:05.888Z,9.204000
2023-05-19T01:07:05.870Z,9.204072
2023-05-19T01:08:05.893Z,9.204002
2023-05-19T01:09:05.878Z,9.203867
2023-05-19T01:10:05.877Z,9.203960
2023-05-19T01:11:05.845Z,9.203771
2023-05-19T01:12:05.860Z,9.204101
2023-05-19T01:13:05.862Z,9.204092
2023-05-19T01:14:05.847Z,9.204030
2023-05-19T01:15:05.820Z,9.203871
2023-05-19T01:16:05.836Z,9.203792
2023-05-19T01:17:05.815Z,9.203830
2023-05-19T01:18:05.915Z,9.203793
2023-05-19T01:19:05.876Z,9.203690
2023-05-19T01:20:05.782Z,9.203712
2023-05-19T01:21:05.836Z,9.203785
2023-05-19T01:22:05.772Z,9.203785
2023-05-19T01:23:05.780Z,9.203736
2023-05-19T01:24:05.771Z,9.204144
2023-05-19T01:25:05.776Z,9.203877
2023-05-19T01:26:05.757Z,9.203886
2023-05-19T01:27:05.746Z,9.204106
2023-05-19T01:28:05.743Z,9.204181
2023-05-19T01:29:05.727Z,9.203802
2023-05-19T01:30:05.751Z,9.203601
2023-05-19T01:31:05.713Z,9.203690
2023-05-19T01:32:05.827Z,9.203790
2023-05-19T01:33:05.742Z,9.203803
2023-05-19T01:34:05.721Z,9.203650
2023-05-19T01:35:05.714Z,9.203691
2023-05-19T01:36:05.690Z,9.203697
2023-05-19T01:37:05.673Z,9.203659
2023-05-19T01:38:05.701Z,9.203736
2023-05-19T01:39:05.650Z,9.203614
2023-05-19T01:40:05.681Z,9.203792
2023-05-19T01:41:05.683Z,9.203777
2023-05-19T01:42:05.655Z,9.203646
2023-05-19T01:43:05.653Z,9.203640
2023-05-19T01:44:05.641Z,9.203676
2023-05-19T01:45:05.634Z,9.203702
2023-05-19T01:46:05.691Z,9.203800
2023-05-19T01:47:05.651Z,9.203685
2023-05-19T01:48:06.375Z,9.203690
2023-05-19T01:49:05.616Z,9.203670
2023-05-19T01:50:05.610Z,9.203639
2023-05-19T01:51:05.618Z,9.203611
2023-05-19T01:52:05.635Z,9.203698
2023-05-19T01:53:05.613Z,9.203725
2023-05-19T01:54:05.618Z,9.203508
2023-05-19T01:55:05.595Z,9.203736
2023-05-19T01:56:05.599Z,9.203679
2023-05-19T01:57:05.616Z,9.203642
2023-05-19T01:58:05.565Z,9.203504
2023-05-19T01:59:05.631Z,9.203865
2023-05-19T02:00:05.583Z,9.203651
2023-05-19T02:01:05.634Z,9.203708
2023-05-19T02:02:05.585Z,9.203794
2023-05-19T02:03:05.591Z,9.203762
2023-05-19T02:04:05.551Z,9.203743
2023-05-19T02:05:05.518Z,9.203580
2023-05-19T02:06:05.527Z,9.203640
2023-05-19T02:07:05.536Z,9.203755
2023-05-19T02:08:05.552Z,9.203600
2023-05-19T02:09:05.530Z,9.203640
2023-05-19T02:10:05.503Z,9.203690
2023-05-19T02:11:05.502Z,9.203770
2023-05-19T02:12:05.479Z,9.203646
2023-05-19T02:13:05.480Z,9.203665
2023-05-19T02:14:05.504Z,9.203697
2023-05-19T02:15:05.474Z,9.203831
2023-05-19T02:16:05.517Z,9.203768
2023-05-19T02:17:05.465Z,9.203652
2023-05-19T02:18:05.464Z,9.203675
2023-05-19T02:19:05.528Z,9.203654
2023-05-19T02:20:06.462Z,9.203741
2023-05-19T02:21:05.435Z,9.203881
2023-05-19T02:22:05.421Z,9.203895
2023-05-19T02:23:06.418Z,9.203833
2023-05-19T02:24:05.419Z,9.203731
2023-05-19T02:25:05.437Z,9.203640
2023-05-19T02:26:05.407Z,9.203639
2023-05-19T02:27:05.399Z,9.203720
2023-05-19T02:28:05.401Z,9.203700
2023-05-19T02:29:05.416Z,9.203793
2023-05-19T02:30:05.395Z,9.203755
2023-05-19T02:31:05.401Z,9.204420
2023-05-19T02:32:05.487Z,9.204079
2023-05-19T02:33:05.452Z,9.204362
2023-05-19T02:34:05.363Z,9.204040
2023-05-19T02:35:05.370Z,9.203986
2023-05-19T02:36:05.349Z,9.203959
2023-05-19T02:37:05.363Z,9.203951
2023-05-19T02:38:05.338Z,9.203767
2023-05-19T02:39:05.328Z,9.203489
2023-05-19T02:40:05.357Z,9.203419
2023-05-19T02:41:05.341Z,9.203400
2023-05-19T02:42:05.293Z,9.203364
2023-05-19T02:43:05.299Z,9.203604
2023-05-19T02:44:05.289Z,9.203382
2023-05-19T02:45:05.334Z,9.203628
2023-05-19T02:46:05.322Z,9.204045
2023-05-19T02:47:05.282Z,9.203819
2023-05-19T02:48:05.313Z,9.203614
2023-05-19T02:49:05.278Z,9.203666
2023-05-19T02:50:05.292Z,9.203753
2023-05-19T02:51:05.278Z,9.203711
2023-05-19T02:52:05.289Z,9.203645
2023-05-19T02:53:05.283Z,9.203837
2023-05-19T02:54:05.260Z,9.203758
2023-05-19T02:55:05.268Z,9.203717
2023-05-19T02:56:05.268Z,9.203671
2023-05-19T02:57:05.256Z,9.203673
2023-05-19T02:58:05.251Z,9.203543
2023-05-19T02:59:05.233Z,9.203484
2023-05-19T03:00:05.223Z,9.203461
2023-05-19T03:01:05.251Z,9.203599
2023-05-19T03:02:05.291Z,9.203552
2023-05-19T03:03:05.284Z,9.203736
2023-05-19T03:04:05.257Z,9.203629
2023-05-19T03:05:05.246Z,9.203760
2023-05-19T03:06:05.305Z,9.203732
2023-05-19T03:07:05.191Z,9.203757
2023-05-19T03:08:05.243Z,9.203700
2023-05-19T03:09:05.189Z,9.203711
2023-05-19T03:10:05.194Z,9.203614
2023-05-19T03:11:05.164Z,9.203620
2023-05-19T03:12:05.194Z,9.203599
2023-05-19T03:13:05.174Z,9.203697
2023-05-19T03:14:05.216Z,9.203630
2023-05-19T03:15:05.146Z,9.203748
2023-05-19T03:16:05.152Z,9.203638
2023-05-19T03:17:05.171Z,9.203622
2023-05-19T03:18:05.214Z,9.203707
2023-05-19T03:19:05.169Z,9.203580
2023-05-19T03:20:05.142Z,9.203505
2023-05-19T03:21:05.171Z,9.203773
2023-05-19T03:22:05.141Z,9.203959
2023-05-19T03:23:05.117Z,9.203814
2023-05-19T03:24:05.128Z,9.203598
2023-05-19T03:25:05.119Z,9.203605
2023-05-19T03:26:05.143Z,9.203671
2023-05-19T03:27:05.137Z,9.203665
2023-05-19T03:28:05.109Z,9.203699
2023-05-19T03:29:05.119Z,9.203870
2023-05-19T03:30:06.603Z,9.203672
2023-05-19T03:31:06.074Z,9.203776
2023-05-19T03:32:05.120Z,9.203566
2023-05-19T03:33:05.211Z,9.203788
2023-05-19T03:34:05.086Z,9.203706
2023-05-19T03:35:05.058Z,9.203783
2023-05-19T03:36:05.066Z,9.203710
2023-05-19T03:37:05.090Z,9.203706
2023-05-19T03:38:05.079Z,9.203756
2023-05-19T03:39:05.022Z,9.203735
2023-05-19T03:40:05.027Z,9.203676
2023-05-19T03:41:05.066Z,9.203780
2023-05-19T03:42:05.075Z,9.203678
2023-05-19T03:43:05.025Z,9.203683
2023-05-19T03:44:05.050Z,9.203747
2023-05-19T03:45:05.013Z,9.203727
2023-05-19T03:46:05.092Z,9.203727
2023-05-19T03:47:05.040Z,9.203721
2023-05-19T03:48:05.029Z,9.203660
2023-05-19T03:49:05.021Z,9.203693
2023-05-19T03:50:05.008Z,9.203715
2023-05-19T03:51:04.986Z,9.203653
2023-05-19T03:52:05.018Z,9.203627
2023-05-19T03:53:05.019Z,9.203656
2023-05-19T03:54:04.991Z,9.203660
2023-05-19T03:55:04.981Z,9.203729
2023-05-19T03:56:04.966Z,9.203712
2023-05-19T03:57:04.956Z,9.203620
2023-05-19T03:58:05.009Z,9.203606
2023-05-19T03:59:04.964Z,9.203559
2023-05-19T04:00:04.936Z,9.203679
2023-05-19T04:01:05.006Z,9.203793
2023-05-19T04:02:04.948Z,9.203711
2023-05-19T04:03:05.991Z,9.203786
2023-05-19T04:04:04.974Z,9.203828
2023-05-19T04:05:04.937Z,9.203631
2023-05-19T04:06:04.912Z,9.203699
2023-05-19T04:07:04.905Z,9.203753
2023-05-19T04:08:04.920Z,9.203718
2023-05-19T04:09:04.926Z,9.203582
2023-05-19T04:10:04.931Z,9.203552
2023-05-19T04:11:04.886Z,9.203716
2023-05-19T04:12:04.895Z,9.203861
2023-05-19T04:13:04.877Z,9.203662
2023-05-19T04:14:04.903Z,9.203596
2023-05-19T04:15:04.881Z,9.203722
2023-05-19T04:16:04.910Z,9.203463
2023-05-19T04:17:05.544Z,9.203654
2023-05-19T04:18:04.897Z,9.203624
2023-05-19T04:19:05.002Z,9.203878
2023-05-19T04:20:04.883Z,9.203774
2023-05-19T04:21:04.846Z,9.203929
2023-05-19T04:22:04.837Z,9.203718
2023-05-19T04:23:04.879Z,9.203766
2023-05-19T04:24:04.822Z,9.203514
2023-05-19T04:25:04.873Z,9.203544
2023-05-19T04:26:04.837Z,9.203816
2023-05-19T04:27:04.821Z,9.204000
2023-05-19T04:28:04.827Z,9.204115
2023-05-19T04:29:04.804Z,9.203859
2023-05-19T04:30:04.870Z,9.203835
2023-05-19T04:31:04.830Z,9.203765
2023-05-19T04:32:04.776Z,9.203835
2023-05-19T04:33:05.020Z,9.204062
2023-05-19T04:34:04.785Z,9.204020
2023-05-19T04:35:04.809Z,9.203991
2023-05-19T04:36:04.764Z,9.203944
2023-05-19T04:37:04.793Z,9.203945
2023-05-19T04:38:04.768Z,9.204311
2023-05-19T04:39:04.745Z,9.204345
2023-05-19T04:40:04.768Z,9.204213
2023-05-19T04:41:04.773Z,9.204045
2023-05-19T04:42:04.747Z,9.204166
2023-05-19T04:43:04.727Z,9.204222
2023-05-19T04:44:04.699Z,9.204173
2023-05-19T04:45:04.793Z,9.204208
2023-05-19T04:46:04.752Z,9.203929
2023-05-19T04:47:04.870Z,9.204004
2023-05-19T04:48:04.878Z,9.203986
2023-05-19T04:49:04.752Z,9.204079
2023-05-19T04:50:04.768Z,9.204094
2023-05-19T04:51:04.733Z,9.204040
2023-05-19T04:52:04.774Z,9.203923
2023-05-19T04:53:04.667Z,9.203837
2023-05-19T04:54:05.679Z,9.203714
2023-05-19T04:55:04.635Z,9.203854
2023-05-19T04:56:04.650Z,9.203785
2023-05-19T04:57:04.659Z,9.203972
2023-05-19T04:58:04.655Z,9.204221
2023-05-19T04:59:04.649Z,9.204248
2023-05-19T05:00:04.606Z,9.204730
2023-05-19T05:01:05.608Z,9.204573
2023-05-19T05:02:04.621Z,9.204515
2023-05-19T05:03:04.640Z,9.204499
2023-05-19T05:04:04.703Z,9.204420
2023-05-19T05:05:04.575Z,9.204196
2023-05-19T05:06:04.564Z,9.203969
2023-05-19T05:07:04.559Z,9.204031
2023-05-19T05:08:04.566Z,9.204002
2023-05-19T05:09:04.543Z,9.204259
2023-05-19T05:10:04.534Z,9.204119
2023-05-19T05:11:04.556Z,9.203976
2023-05-19T05:12:04.569Z,9.204226
2023-05-19T05:13:04.568Z,9.204018
2023-05-19T05:14:04.508Z,9.203535
2023-05-19T05:15:04.563Z,9.203442
2023-05-19T05:16:04.510Z,9.203458
2023-05-19T05:17:04.615Z,9.203480
2023-05-19T05:18:04.510Z,9.203480
2023-05-19T05:19:04.473Z,9.203542
2023-05-19T05:20:04.475Z,9.203645
2023-05-19T05:21:04.463Z,9.203850
2023-05-19T05:22:04.695Z,9.203684
2023-05-19T05:23:04.436Z,9.203819
2023-05-19T05:24:04.449Z,9.203831
2023-05-19T05:25:04.425Z,9.203662
2023-05-19T05:26:04.437Z,9.203876
2023-05-19T05:27:04.391Z,9.203806
2023-05-19T05:28:04.388Z,9.203593
2023-05-19T05:29:04.410Z,9.203657
2023-05-19T05:30:04.389Z,9.203670
2023-05-19T05:31:04.352Z,9.203506
2023-05-19T05:32:04.387Z,9.203581
2023-05-19T05:33:04.483Z,9.203589
2023-05-19T05:34:04.343Z,9.203640
2023-05-19T05:35:04.344Z,9.203636
2023-05-19T05:36:04.336Z,9.203752
2023-05-19T05:37:04.323Z,9.203870
2023-05-19T05:38:04.315Z,9.203647
2023-05-19T05:39:04.315Z,9.204034
2023-05-19T05:40:04.302Z,9.203996
2023-05-19T05:41:04.328Z,9.203692
2023-05-19T05:42:04.276Z,9.203594
2023-05-19T05:43:04.324Z,9.203519
2023-05-19T05:44:04.298Z,9.203778
2023-05-19T05:45:04.264Z,9.203361
2023-05-19T05:46:04.369Z,9.203661
2023-05-19T05:47:04.257Z,9.203763
2023-05-19T05:48:04.364Z,9.203746
2023-05-19T05:49:04.204Z,9.203555
2023-05-19T05:50:04.230Z,9.203593
2023-05-19T05:51:04.215Z,9.203789
2023-05-19T05:52:06.252Z,9.203814
2023-05-19T05:53:05.309Z,9.203658
2023-05-19T05:54:04.184Z,9.203724
2023-05-19T05:55:04.164Z,9.203805
2023-05-19T05:56:04.152Z,9.203633
2023-05-19T05:57:04.160Z,9.203732
2023-05-19T05:58:04.164Z,9.203761
2023-05-19T05:59:04.215Z,9.203716
2023-05-19T06:00:04.133Z,9.203797
2023-05-19T06:01:04.118Z,9.203813
2023-05-19T06:02:04.182Z,9.203753
2023-05-19T06:03:04.201Z,9.203794
2023-05-19T06:04:04.129Z,9.203587
2023-05-19T06:05:04.142Z,9.203678
2023-05-19T06:06:04.102Z,9.203672
2023-05-19T06:07:04.080Z,9.203808
2023-05-19T06:08:04.091Z,9.203774
2023-05-19T06:09:04.060Z,9.203719
2023-05-19T06:10:04.073Z,9.203724
2023-05-19T06:11:04.064Z,9.203687
2023-05-19T06:12:04.040Z,9.203769
2023-05-19T06:13:04.030Z,9.203707
2023-05-19T06:14:04.027Z,9.203573
2023-05-19T06:15:04.038Z,9.203481
2023-05-19T06:16:04.076Z,9.203713
2023-05-19T06:17:05.001Z,9.203774
2023-05-19T06:18:04.044Z,9.203952
2023-05-19T06:19:04.044Z,9.203930
2023-05-19T06:20:04.006Z,9.203638
2023-05-19T06:21:04.000Z,9.203547
2023-05-19T06:22:03.966Z,9.203625
2023-05-19T06:23:04.000Z,9.203770
2023-05-19T06:24:03.965Z,9.203918
2023-05-19T06:25:04.029Z,9.203642
2023-05-19T06:26:03.986Z,9.203533
2023-05-19T06:27:03.979Z,9.203681
2023-05-19T06:28:03.925Z,9.203568
2023-05-19T06:29:03.927Z,9.203603
2023-05-19T06:30:04.015Z,9.203769
2023-05-19T06:31:03.912Z,9.203679
2023-05-19T06:32:03.959Z,9.203727
2023-05-19T06:33:04.050Z,9.203838
2023-05-19T06:34:03.860Z,9.203719
2023-05-19T06:35:03.878Z,9.203470
2023-05-19T06:36:03.869Z,9.203501
2023-05-19T06:37:03.913Z,9.203712
2023-05-19T06:38:03.854Z,9.203501
2023-05-19T06:39:03.824Z,9.204018
2023-05-19T06:40:03.820Z,9.203694
2023-05-19T06:41:03.824Z,9.203653
2023-05-19T06:42:03.836Z,9.203446
2023-05-19T06:43:03.838Z,9.203523
2023-05-19T06:44:03.778Z,9.203739
2023-05-19T06:45:03.814Z,9.203825
2023-05-19T06:46:03.869Z,9.203759
2023-05-19T06:47:03.844Z,9.203588
2023-05-19T06:48:03.888Z,9.203714
2023-05-19T06:49:03.773Z,9.203715
2023-05-19T06:50:03.780Z,9.203765
2023-05-19T06:51:03.738Z,9.203748
2023-05-19T06:52:04.749Z,9.203582
2023-05-19T06:53:03.769Z,9.203574
2023-05-19T06:54:03.766Z,9.203665
2023-05-19T06:55:03.714Z,9.203777
2023-05-19T06:56:03.719Z,9.203621
2023-05-19T06:57:03.715Z,9.203638
2023-05-19T06:58:03.702Z,9.203753
2023-05-19T06:59:03.695Z,9.203716
2023-05-19T07:00:04.678Z,9.203646
2023-05-19T07:01:03.660Z,9.203612
2023-05-19T07:02:03.672Z,9.203590
2023-05-19T07:03:03.759Z,9.203736
2023-05-19T07:04:03.772Z,9.203782
2023-05-19T07:05:03.633Z,9.203701
2023-05-19T07:06:04.633Z,9.203678
2023-05-19T07:07:03.605Z,9.203791
2023-05-19T07:08:03.675Z,9.203785
2023-05-19T07:09:03.619Z,9.203671
2023-05-19T07:10:03.638Z,9.203822
2023-05-19T07:11:03.621Z,9.203701
2023-05-19T07:12:03.624Z,9.203590
2023-05-19T07:13:03.599Z,9.203649
2023-05-19T07:14:03.608Z,9.203764
2023-05-19T07:15:03.558Z,9.203755
2023-05-19T07:16:03.553Z,9.203728
2023-05-19T07:17:03.594Z,9.203783
2023-05-19T07:18:03.592Z,9.203839
2023-05-19T07:19:03.576Z,9.203800
2023-05-19T07:20:03.515Z,9.203730
2023-05-19T07:21:03.545Z,9.203668
2023-05-19T07:22:03.537Z,9.203622
2023-05-19T07:23:03.570Z,9.203882
2023-05-19T07:24:03.499Z,9.203666
2023-05-19T07:25:03.480Z,9.203753
2023-05-19T07:26:03.538Z,9.203517
2023-05-19T07:27:03.482Z,9.203685
2023-05-19T07:28:03.500Z,9.203752
2023-05-19T07:29:03.447Z,9.203728
2023-05-19T07:30:03.434Z,9.203521
2023-05-19T07:31:03.475Z,9.203418
2023-05-19T07:32:03.470Z,9.203599
2023-05-19T07:33:03.512Z,9.203625
2023-05-19T07:34:03.491Z,9.203697
2023-05-19T07:35:03.432Z,9.203643
2023-05-19T07:36:03.418Z,9.203642
2023-05-19T07:37:03.430Z,9.203710
2023-05-19T07:38:03.414Z,9.203591
2023-05-19T07:39:03.504Z,9.203690
2023-05-19T07:40:03.382Z,9.203505
2023-05-19T07:41:03.497Z,9.203667
2023-05-19T07:42:03.368Z,9.203626
2023-05-19T07:43:03.378Z,9.203871
2023-05-19T07:44:03.380Z,9.203713
2023-05-19T07:45:03.335Z,9.203501
2023-05-19T07:46:03.355Z,9.203552
2023-05-19T07:47:03.342Z,9.203616
2023-05-19T07:48:03.391Z,9.203599
2023-05-19T07:49:03.356Z,9.203495
2023-05-19T07:50:03.351Z,9.203588
2023-05-19T07:51:03.341Z,9.203644
2023-05-19T07:52:03.285Z,9.203583
2023-05-19T07:53:03.269Z,9.203486
2023-05-19T07:54:03.294Z,9.203611
2023-05-19T07:55:03.285Z,9.203612
2023-05-19T07:56:03.251Z,9.203781
2023-05-19T07:57:03.274Z,9.203702
2023-05-19T07:58:03.269Z,9.203751
2023-05-19T07:59:03.289Z,9.203687
2023-05-19T08:00:03.234Z,9.203618
2023-05-19T08:01:03.263Z,9.203622
2023-05-19T08:02:03.243Z,9.203710
2023-05-19T08:03:03.346Z,9.204374
2023-05-19T08:04:03.302Z,9.204202
2023-05-19T08:05:03.208Z,9.204578
2023-05-19T08:06:03.202Z,9.204333
2023-05-19T08:07:03.208Z,9.203918
2023-05-19T08:08:03.250Z,9.203965
2023-05-19T08:09:03.160Z,9.203987
2023-05-19T08:10:03.165Z,9.204281
2023-05-19T08:11:03.169Z,9.204000
2023-05-19T08:12:03.204Z,9.203824
2023-05-19T08:13:03.138Z,9.204346
2023-05-19T08:14:03.126Z,9.203659
2023-05-19T08:15:03.204Z,9.203843
2023-05-19T08:16:03.197Z,9.203716
2023-05-19T08:17:03.131Z,9.203317
2023-05-19T08:18:03.142Z,9.203518
2023-05-19T08:19:03.232Z,9.203336
2023-05-19T08:20:03.102Z,9.203079
2023-05-19T08:21:03.128Z,9.203563
2023-05-19T08:22:03.091Z,9.203852
2023-05-19T08:23:03.083Z,9.203867
2023-05-19T08:24:03.129Z,9.203475
2023-05-19T08:25:03.053Z,9.203700
2023-05-19T08:26:03.069Z,9.203620
2023-05-19T08:27:04.064Z,9.203633
2023-05-19T08:28:03.068Z,9.203632
2023-05-19T08:29:03.050Z,9.203576
2023-05-19T08:30:03.040Z,9.203423
2023-05-19T08:31:03.046Z,9.203449
2023-05-19T08:32:03.010Z,9.203347
2023-05-19T08:33:03.186Z,9.203526
2023-05-19T08:34:02.969Z,9.203425
2023-05-19T08:35:03.034Z,9.203321
2023-05-19T08:36:02.974Z,9.203568
2023-05-19T08:37:02.984Z,9.203754
2023-05-19T08:38:03.048Z,9.203466
2023-05-19T08:39:02.973Z,9.203354
2023-05-19T08:40:02.958Z,9.203692
2023-05-19T08:41:02.962Z,9.203629
2023-05-19T08:42:02.968Z,9.203704
2023-05-19T08:43:02.993Z,9.203639
2023-05-19T08:44:02.983Z,9.203175
2023-05-19T08:45:02.948Z,9.203511
2023-05-19T08:46:02.929Z,9.203400
2023-05-19T08:47:03.080Z,9.203599
2023-05-19T08:48:02.951Z,9.203536
2023-05-19T08:49:02.971Z,9.203708
2023-05-19T08:50:02.901Z,9.203410
2023-05-19T08:51:02.905Z,9.203567
2023-05-19T08:52:02.894Z,9.203624
2023-05-19T08:53:02.909Z,9.203828
2023-05-19T08:54:02.885Z,9.203516
2023-05-19T08:55:02.917Z,9.203357
2023-05-19T08:56:02.974Z,9.203628
2023-05-19T08:57:02.873Z,9.203983
2023-05-19T08:58:02.830Z,9.203716
2023-05-19T08:59:02.843Z,9.203292
2023-05-19T09:00:02.870Z,9.203503
2023-05-19T09:01:02.894Z,9.203728
2023-05-19T09:02:02.812Z,9.203790
2023-05-19T09:04:03.886Z,9.204425
2023-05-19T09:05:02.951Z,9.204400
2023-05-19T09:06:02.819Z,9.203844
2023-05-19T09:07:02.786Z,9.203584
2023-05-19T09:08:02.786Z,9.203234
2023-05-19T09:09:02.763Z,9.203335
2023-05-19T09:10:02.805Z,9.203741
2023-05-19T09:11:02.774Z,9.203854
2023-05-19T09:12:02.775Z,9.203553
2023-05-19T09:13:02.745Z,9.203396
2023-05-19T09:14:02.792Z,9.203758
2023-05-19T09:15:02.759Z,9.203571
2023-05-19T09:16:02.756Z,9.203840
2023-05-19T09:17:02.909Z,9.203683
2023-05-19T09:18:02.776Z,9.203641
2023-05-19T09:19:02.725Z,9.203425
2023-05-19T09:20:02.716Z,9.203720
2023-05-19T09:21:03.050Z,9.203797
2023-05-19T09:22:02.744Z,9.203738
2023-05-19T09:23:02.752Z,9.203691
2023-05-19T09:24:02.697Z,9.203880
2023-05-19T09:25:02.689Z,9.203711
2023-05-19T09:26:02.678Z,9.203764
2023-05-19T09:27:02.726Z,9.203739
2023-05-19T09:28:02.645Z,9.203643
2023-05-19T09:29:02.720Z,9.203680
2023-05-19T09:30:02.668Z,9.203757
2023-05-19T09:31:02.648Z,9.203461
2023-05-19T09:32:02.675Z,9.203451
2023-05-19T09:33:02.704Z,9.203429
2023-05-19T09:34:02.660Z,9.203651
2023-05-19T09:35:02.614Z,9.203676
2023-05-19T09:36:02.624Z,9.204122
2023-05-19T09:37:02.627Z,9.203766
2023-05-19T09:38:02.633Z,9.203733
2023-05-19T09:39:02.641Z,9.203617
2023-05-19T09:40:02.580Z,9.203348
2023-05-19T09:41:02.568Z,9.203351
2023-05-19T09:42:02.593Z,9.203484
2023-05-19T09:43:02.544Z,9.203571
2023-05-19T09:44:02.603Z,9.203880
2023-05-19T09:45:02.557Z,9.203843
2023-05-19T09:46:02.577Z,9.203635
2023-05-19T09:47:02.523Z,9.203502
2023-05-19T09:48:02.561Z,9.203292
2023-05-19T09:49:02.502Z,9.203774
2023-05-19T09:50:02.529Z,9.203489
2023-05-19T09:51:03.495Z,9.203858
2023-05-19T09:52:02.498Z,9.203523
2023-05-19T09:53:02.513Z,9.203485
2023-05-19T09:54:02.492Z,9.203200
2023-05-19T09:55:02.524Z,9.203161
2023-05-19T09:56:02.527Z,9.203753
2023-05-19T09:57:02.554Z,9.203561
2023-05-19T09:58:02.479Z,9.203319
2023-05-19T09:59:02.543Z,9.203442
2023-05-19T10:00:02.526Z,9.204185
2023-05-19T10:01:02.498Z,9.204269
2023-05-19T10:02:02.670Z,9.203698
2023-05-19T10:03:02.477Z,9.203611
2023-05-19T10:04:03.776Z,9.203792
2023-05-19T10:05:02.443Z,9.203595
2023-05-19T10:06:02.444Z,9.203593
2023-05-19T10:07:02.437Z,9.203645
2023-05-19T10:08:02.405Z,9.203707
2023-05-19T10:09:02.410Z,9.204024
2023-05-19T10:10:02.393Z,9.203683
2023-05-19T10:11:02.425Z,9.203645
2023-05-19T10:12:02.402Z,9.203749
2023-05-19T10:13:02.474Z,9.203720
2023-05-19T10:14:02.380Z,9.203854
2023-05-19T10:15:02.407Z,9.203702
2023-05-19T10:16:02.609Z,9.203599
2023-05-19T10:17:02.546Z,9.203641
2023-05-19T10:18:02.426Z,9.203706
2023-05-19T10:19:02.439Z,9.203632
2023-05-19T10:20:02.340Z,9.203747
2023-05-19T10:21:02.330Z,9.203757
2023-05-19T10:22:02.317Z,9.203671
2023-05-19T10:23:02.387Z,9.203643
2023-05-19T10:24:02.310Z,9.203645
2023-05-19T10:25:02.312Z,9.203632
2023-05-19T10:26:02.306Z,9.203737
2023-05-19T10:27:02.339Z,9.203491
2023-05-19T10:28:02.321Z,9.203724
2023-05-19T10:29:04.154Z,9.203675
2023-05-19T10:30:03.444Z,9.203881
2023-05-19T10:31:02.252Z,9.203727
2023-05-19T10:32:02.376Z,9.203831
2023-05-19T10:33:02.386Z,9.203428
2023-05-19T10:34:02.280Z,9.203602
2023-05-19T10:35:02.232Z,9.203707
2023-05-19T10:36:02.304Z,9.203844
2023-05-19T10:37:02.207Z,9.203625
2023-05-19T10:38:02.211Z,9.203695
2023-05-19T10:39:02.426Z,9.203815
2023-05-19T10:40:02.319Z,9.203789
2023-05-19T10:41:02.248Z,9.203685
2023-05-19T10:42:03.117Z,9.203663
2023-05-19T10:43:02.183Z,9.203875
2023-05-19T10:44:02.203Z,9.203809
2023-05-19T10:45:02.238Z,9.203794
2023-05-19T10:46:02.265Z,9.203826
2023-05-19T10:47:02.365Z,9.203688
2023-05-19T10:48:02.242Z,9.203767
2023-05-19T10:49:02.166Z,9.203782
2023-05-19T10:50:02.298Z,9.203638
2023-05-19T10:51:02.201Z,9.203726
2023-05-19T10:52:02.150Z,9.203642
2023-05-19T10:53:02.141Z,9.203718
2023-05-19T10:54:02.168Z,9.203728
2023-05-19T10:55:02.214Z,9.203688
2023-05-19T10:56:02.167Z,9.203709
2023-05-19T10:57:02.130Z,9.203764
2023-05-19T10:58:02.102Z,9.203636
2023-05-19T10:59:02.082Z,9.203886
2023-05-19T11:00:02.142Z,9.203771
2023-05-19T11:01:02.074Z,9.203700
2023-05-19T11:02:03.915Z,9.203603
2023-05-19T11:03:02.107Z,9.203638
2023-05-19T11:04:02.167Z,9.203693
2023-05-19T11:05:02.126Z,9.203704
2023-05-19T11:06:02.033Z,9.203767
2023-05-19T11:07:02.046Z,9.203669
2023-05-19T11:08:02.103Z,9.203671
2023-05-19T11:09:02.034Z,9.203830
2023-05-19T11:10:02.172Z,9.203771
2023-05-19T11:11:02.020Z,9.203776
2023-05-19T11:12:02.030Z,9.203862
2023-05-19T11:13:02.068Z,9.203807
2023-05-19T11:14:01.992Z,9.203879
2023-05-19T11:15:01.982Z,9.203787
2023-05-19T11:16:01.997Z,9.203803
2023-05-19T11:17:02.059Z,9.203668
2023-05-19T11:18:02.025Z,9.203778
2023-05-19T11:19:02.021Z,9.203675
2023-05-19T11:20:01.979Z,9.203787
2023-05-19T11:21:01.996Z,9.203798
2023-05-19T11:22:01.938Z,9.203740
2023-05-19T11:23:02.003Z,9.203606
2023-05-19T11:24:02.072Z,9.203723
2023-05-19T11:25:01.906Z,9.203696
2023-05-19T11:26:01.942Z,9.203672
2023-05-19T11:27:01.966Z,9.203838
2023-05-19T11:28:01.911Z,9.203665
2023-05-19T11:29:01.943Z,9.203722
2023-05-19T11:30:02.034Z,9.203681
2023-05-19T11:31:01.889Z,9.203721
2023-05-19T11:32:01.909Z,9.203607
2023-05-19T11:33:01.952Z,9.203589
2023-05-19T11:34:01.901Z,9.203679
2023-05-19T11:35:02.149Z,9.203769
2023-05-19T11:36:01.866Z,9.203655
2023-05-19T11:37:01.851Z,9.203620
2023-05-19T11:38:01.922Z,9.203796
2023-05-19T11:39:01.832Z,9.203245
2023-05-19T11:40:01.847Z,9.203728
2023-05-19T11:41:01.856Z,9.203878
2023-05-19T11:42:01.822Z,9.203785
2023-05-19T11:43:01.816Z,9.203755
2023-05-19T11:44:01.835Z,9.203663
2023-05-19T11:45:01.893Z,9.203794